createdAt,value
2022-09-09T00:00:35.777Z,5.65
2022-09-09T00:03:11.308Z,12.55
2022-09-09T00:05:53.302Z,4.82
2022-09-09T00:08:23.808Z,5.35
2022-09-09T00:10:57.291Z,8.73
2022-09-09T00:13:30.093Z,5.55
2022-09-09T00:16:05.794Z,7.15
2022-09-09T00:19:07.439Z,3.10
2022-09-09T00:21:37.651Z,7.18
2022-09-09T00:24:16.222Z,8.82
2022-09-09T00:26:52.665Z,5.43
2022-09-09T00:29:43.638Z,5.57
2022-09-09T00:32:15.060Z,6.15
2022-09-09T00:34:55.437Z,11.43
2022-09-09T00:37:26.196Z,9.13
2022-09-09T00:39:55.806Z,7.97
2022-09-09T00:42:27.659Z,13.55
2022-09-09T00:45:16.889Z,11.00
2022-09-09T00:47:52.509Z,14.88
2022-09-09T00:50:47.386Z,15.55
2022-09-09T00:53:24.622Z,35.20
2022-09-09T00:56:27.004Z,68.70
2022-09-09T00:59:11.392Z,52.45
2022-09-09T01:01:40.438Z,32.33
2022-09-09T01:04:17.016Z,24.13
2022-09-09T01:06:47.163Z,23.25
2022-09-09T01:09:45.773Z,22.80
2022-09-09T01:12:33.540Z,9.25
2022-09-09T01:15:04.795Z,12.35
2022-09-09T01:17:36.705Z,19.77
2022-09-09T01:20:20.247Z,14.30
2022-09-09T01:23:00.442Z,17.50
2022-09-09T01:26:05.836Z,16.83
2022-09-09T01:28:35.385Z,7.20
2022-09-09T01:31:08.041Z,15.27
2022-09-09T01:33:41.415Z,10.05
2022-09-09T01:36:16.312Z,12.38
2022-09-09T01:38:47.610Z,10.00
2022-09-09T01:41:15.175Z,9.93
2022-09-09T01:43:59.832Z,13.35
2022-09-09T01:46:29.064Z,12.55
2022-09-09T01:48:57.357Z,11.48
2022-09-09T01:51:24.573Z,13.93
2022-09-09T01:53:51.444Z,13.05
2022-09-09T01:56:39.606Z,9.25
2022-09-09T01:59:10.056Z,7.00
2022-09-09T02:01:47.854Z,11.38
2022-09-09T02:04:37.079Z,11.70
2022-09-09T02:07:21.729Z,9.57
2022-09-09T02:09:52.489Z,18.08
2022-09-09T02:12:21.295Z,9.82
2022-09-09T02:15:05.227Z,12.88
2022-09-09T02:17:42.182Z,11.60
2022-09-09T02:20:15.733Z,10.15
2022-09-09T02:22:51.278Z,11.43
2022-09-09T02:25:22.619Z,15.57
2022-09-09T02:27:51.748Z,8.23
2022-09-09T02:30:21.179Z,10.50
2022-09-09T02:32:53.982Z,16.58
2022-09-09T02:35:25.241Z,11.05
2022-09-09T02:37:53.925Z,14.32
2022-09-09T02:40:21.939Z,14.57
2022-09-09T02:42:56.282Z,14.70
2022-09-09T02:45:29.523Z,13.60
2022-09-09T02:48:19.930Z,9.80
2022-09-09T02:50:58.355Z,10.82
2022-09-09T02:53:52.104Z,13.00
2022-09-09T02:58:48.591Z,16.00
2022-09-09T03:01:15.418Z,10.02
2022-09-09T03:03:43.423Z,9.52
2022-09-09T03:08:41.652Z,11.23
2022-09-09T03:11:10.088Z,14.98
2022-09-09T03:13:38.820Z,12.32
2022-09-09T03:16:06.464Z,8.98
2022-09-09T03:18:38.991Z,19.10
2022-09-09T03:21:05.604Z,10.65
2022-09-09T03:23:32.184Z,13.32
2022-09-09T03:26:02.234Z,10.63
2022-09-09T03:28:38.359Z,11.25
2022-09-09T03:31:06.466Z,13.82
2022-09-09T03:33:38.932Z,13.63
2022-09-09T03:36:06.690Z,13.68
2022-09-09T03:38:33.287Z,12.40
2022-09-09T03:41:02.732Z,15.52
2022-09-09T03:43:30.873Z,18.73
2022-09-09T03:45:58.201Z,17.00
2022-09-09T03:48:28.848Z,14.90
2022-09-09T03:51:01.675Z,18.73
2022-09-09T03:53:30.341Z,18.95
2022-09-09T03:56:00.365Z,10.40
2022-09-09T03:58:28.121Z,17.90
2022-09-09T04:01:01.926Z,14.80
2022-09-09T04:03:29.400Z,14.70
2022-09-09T04:05:57.728Z,15.52
2022-09-09T04:08:28.749Z,18.75
2022-09-09T04:10:58.849Z,11.05
2022-09-09T04:13:27.292Z,16.55
2022-09-09T04:15:59.694Z,10.40
2022-09-09T04:18:27.026Z,18.08
2022-09-09T04:20:54.097Z,14.43
2022-09-09T04:23:25.005Z,11.48
2022-09-09T04:25:53.144Z,14.55
2022-09-09T04:28:20.789Z,14.68
2022-09-09T04:30:47.725Z,19.20
2022-09-09T04:33:15.236Z,22.65
2022-09-09T04:35:50.445Z,11.05
2022-09-09T04:38:19.094Z,16.27
2022-09-09T04:40:48.640Z,16.15
2022-09-09T04:43:15.673Z,26.30
2022-09-09T04:45:44.368Z,16.83
2022-09-09T04:48:11.033Z,16.88
2022-09-09T04:50:37.558Z,14.18
2022-09-09T04:53:06.150Z,13.77
2022-09-09T04:55:35.848Z,18.67
2022-09-09T04:58:06.753Z,16.67
2022-09-09T05:00:34.711Z,25.58
2022-09-09T05:03:06.524Z,16.95
2022-09-09T05:05:36.968Z,22.98
2022-09-09T05:08:09.431Z,18.50
2022-09-09T05:10:38.745Z,21.13
2022-09-09T05:13:05.995Z,18.23
2022-09-09T05:15:32.496Z,15.65
2022-09-09T05:18:01.163Z,20.35
2022-09-09T05:20:30.090Z,32.38
2022-09-09T05:22:57.383Z,14.70
2022-09-09T05:25:27.199Z,20.23
2022-09-09T05:27:55.316Z,23.38
2022-09-09T05:30:24.143Z,13.50
2022-09-09T05:32:51.665Z,12.43
2022-09-09T05:35:20.037Z,16.23
2022-09-09T05:37:46.987Z,14.25
2022-09-09T05:40:14.180Z,16.40
2022-09-09T05:42:41.571Z,14.68
2022-09-09T05:45:09.776Z,20.90
2022-09-09T05:47:38.150Z,14.60
2022-09-09T05:50:07.788Z,17.80
2022-09-09T05:52:34.588Z,20.25
2022-09-09T05:55:01.504Z,14.63
2022-09-09T05:57:29.274Z,21.08
2022-09-09T05:59:55.928Z,10.73
2022-09-09T06:02:22.786Z,18.38
2022-09-09T06:04:50.149Z,29.85
2022-09-09T06:07:16.693Z,23.88
2022-09-09T06:09:43.329Z,22.80
2022-09-09T06:12:10.093Z,17.52
2022-09-09T06:14:37.839Z,15.25
2022-09-09T06:17:04.759Z,13.35
2022-09-09T06:19:31.830Z,13.75
2022-09-09T06:21:59.718Z,17.90
2022-09-09T06:24:28.221Z,18.95
2022-09-09T06:26:54.988Z,20.40
2022-09-09T06:29:26.631Z,23.17
2022-09-09T06:31:53.625Z,21.83
2022-09-09T06:34:22.642Z,25.90
2022-09-09T06:36:53.282Z,23.75
2022-09-09T06:39:19.851Z,22.50
2022-09-09T06:41:46.698Z,18.83
2022-09-09T06:44:39.009Z,14.77
2022-09-09T06:47:08.980Z,11.32
2022-09-09T06:49:35.948Z,16.40
2022-09-09T06:52:05.914Z,14.38
2022-09-09T06:54:32.643Z,14.18
2022-09-09T06:57:20.801Z,15.32
2022-09-09T06:59:50.241Z,11.50
2022-09-09T07:02:16.939Z,10.02
2022-09-09T07:04:44.505Z,9.65
2022-09-09T07:07:13.145Z,12.95
2022-09-09T07:09:39.653Z,12.88
2022-09-09T07:12:06.723Z,12.32
2022-09-09T07:14:37.036Z,13.40
2022-09-09T07:17:05.113Z,13.80
2022-09-09T07:19:37.737Z,12.20
2022-09-09T07:22:07.131Z,13.65
2022-09-09T07:24:35.963Z,11.57
2022-09-09T07:27:04.172Z,10.20
2022-09-09T07:29:31.364Z,10.20
2022-09-09T07:31:58.112Z,10.38
2022-09-09T07:34:30.862Z,12.52
2022-09-09T07:36:58.408Z,7.53
2022-09-09T07:39:25.275Z,11.32
2022-09-09T07:41:55.538Z,7.75
2022-09-09T07:44:25.672Z,14.02
2022-09-09T07:46:59.324Z,14.70
2022-09-09T07:49:33.075Z,13.00
2022-09-09T07:52:01.391Z,11.75
2022-09-09T07:54:28.689Z,10.23
2022-09-09T07:56:55.240Z,10.15
2022-09-09T07:59:25.416Z,6.13
2022-09-09T08:01:55.559Z,7.55
2022-09-09T08:04:26.136Z,16.13
2022-09-09T08:06:55.595Z,17.58
2022-09-09T08:09:29.487Z,11.23
2022-09-09T08:12:03.372Z,12.20
2022-09-09T08:14:30.973Z,16.13
2022-09-09T08:16:58.266Z,9.95
2022-09-09T08:19:30.382Z,10.35
2022-09-09T08:21:58.147Z,9.60
2022-09-09T08:24:24.924Z,7.78
2022-09-09T08:26:54.787Z,10.52
2022-09-09T08:29:24.180Z,12.50
2022-09-09T08:31:55.227Z,7.85
2022-09-09T08:34:22.676Z,8.35
2022-09-09T08:36:51.801Z,13.50
2022-09-09T08:39:22.656Z,10.88
2022-09-09T08:42:19.933Z,8.20
2022-09-09T08:45:14.310Z,10.65
2022-09-09T08:47:58.976Z,5.13
2022-09-09T08:50:29.611Z,5.13
2022-09-09T08:53:20.988Z,7.18
2022-09-09T08:55:52.184Z,9.68
2022-09-09T08:58:29.203Z,8.98
2022-09-09T09:01:09.541Z,8.48
2022-09-09T09:04:00.039Z,8.85
2022-09-09T09:06:37.065Z,9.00
2022-09-09T09:09:20.144Z,5.90
2022-09-09T09:11:55.405Z,8.80
2022-09-09T09:14:25.481Z,6.28
2022-09-09T09:17:07.278Z,11.57
2022-09-09T09:19:35.768Z,4.15
2022-09-09T09:22:18.966Z,10.73
2022-09-09T09:24:51.955Z,9.98
2022-09-09T09:27:36.096Z,5.13
2022-09-09T09:30:29.901Z,6.97
2022-09-09T09:33:04.195Z,8.30
2022-09-09T09:35:30.911Z,7.82
2022-09-09T09:41:01.118Z,5.32
2022-09-09T09:43:31.386Z,9.43
2022-09-09T09:46:16.829Z,10.52
2022-09-09T09:48:44.269Z,5.07
2022-09-09T09:51:14.841Z,5.72
2022-09-09T09:56:13.074Z,7.03
2022-09-09T09:58:47.086Z,7.78
2022-09-09T10:01:32.190Z,7.10
2022-09-09T10:04:04.257Z,4.68
2022-09-09T10:06:33.284Z,5.40
2022-09-09T10:09:00.206Z,6.63
2022-09-09T10:11:47.715Z,7.18
2022-09-09T10:14:21.064Z,4.93
2022-09-09T10:17:02.509Z,6.13
2022-09-09T10:22:24.581Z,4.30
2022-09-09T10:25:15.778Z,4.03
2022-09-09T10:27:48.390Z,7.22
2022-09-09T10:30:25.756Z,5.85
2022-09-09T10:33:06.722Z,6.13
2022-09-09T10:35:54.887Z,3.22
2022-09-09T10:38:48.717Z,4.70
2022-09-09T10:41:57.042Z,7.50
2022-09-09T10:44:37.405Z,8.15
2022-09-09T10:47:22.158Z,11.90
2022-09-09T10:50:09.325Z,4.75
2022-09-09T10:52:52.031Z,3.17
2022-09-09T10:55:21.029Z,3.17
2022-09-09T10:57:49.859Z,6.60
2022-09-09T11:00:24.749Z,6.15
2022-09-09T11:02:56.328Z,4.13
2022-09-09T11:05:29.498Z,4.55
2022-09-09T11:08:01.774Z,6.45
2022-09-09T11:10:48.128Z,3.30
2022-09-09T11:13:26.946Z,8.48
2022-09-09T11:15:58.208Z,5.18
2022-09-09T11:20:59.673Z,4.82
2022-09-09T11:23:42.084Z,4.65
2022-09-09T11:26:14.782Z,3.60
2022-09-09T11:28:58.025Z,7.75
2022-09-09T11:31:47.777Z,5.22
2022-09-09T11:34:45.924Z,2.85
2022-09-09T11:37:30.348Z,4.80
2022-09-09T11:40:26.398Z,6.53
2022-09-09T11:43:13.627Z,6.35
2022-09-09T11:45:42.285Z,6.32
2022-09-09T11:48:27.855Z,5.28
2022-09-09T11:51:12.139Z,5.55
2022-09-09T11:53:58.394Z,4.82
2022-09-09T11:56:33.271Z,4.57
2022-09-09T11:59:06.331Z,8.80
2022-09-09T12:01:42.346Z,6.22
2022-09-09T12:04:22.409Z,4.22
2022-09-09T12:07:12.198Z,4.75
2022-09-09T12:09:57.859Z,4.25
2022-09-09T12:12:31.380Z,2.42
2022-09-09T12:15:28.932Z,4.82
2022-09-09T12:18:02.680Z,5.93
2022-09-09T12:20:32.579Z,4.85
2022-09-09T12:23:17.512Z,8.02
2022-09-09T12:26:13.146Z,5.07
2022-09-09T12:28:51.766Z,6.47
2022-09-09T12:31:31.498Z,4.82
2022-09-09T12:34:07.169Z,3.35
2022-09-09T12:36:34.533Z,2.75
2022-09-09T12:39:11.936Z,5.25
2022-09-09T12:41:38.859Z,4.90
2022-09-09T12:44:07.078Z,6.40
2022-09-09T12:46:41.368Z,4.05
2022-09-09T12:49:39.377Z,5.97
2022-09-09T12:52:07.509Z,9.32
2022-09-09T12:54:36.063Z,9.00
2022-09-09T12:57:03.155Z,7.25
2022-09-09T12:59:38.630Z,6.50
2022-09-09T13:02:17.833Z,6.57
2022-09-09T13:04:45.401Z,5.32
2022-09-09T13:07:16.913Z,6.70
2022-09-09T13:09:47.407Z,6.78
2022-09-09T13:12:20.102Z,5.60
2022-09-09T13:14:49.439Z,6.53
2022-09-09T13:17:22.815Z,8.80
2022-09-09T13:19:53.727Z,5.68
2022-09-09T13:22:31.939Z,4.80
2022-09-09T13:25:06.121Z,5.10
2022-09-09T13:27:58.529Z,4.05
2022-09-09T13:30:41.172Z,8.27
2022-09-09T13:33:10.525Z,7.00
2022-09-09T13:35:47.456Z,6.20
2022-09-09T13:38:15.785Z,10.63
2022-09-09T13:41:02.773Z,4.82
2022-09-09T13:43:31.759Z,6.78
2022-09-09T13:46:02.111Z,3.35
2022-09-09T13:48:29.153Z,8.03
2022-09-09T13:51:06.197Z,10.23
2022-09-09T13:53:32.756Z,4.88
2022-09-09T13:55:59.862Z,7.28
2022-09-09T13:58:27.400Z,6.47
2022-09-09T14:00:54.299Z,5.57
2022-09-09T14:03:21.796Z,7.97
2022-09-09T14:05:48.428Z,5.10
2022-09-09T14:08:23.982Z,5.15
2022-09-09T14:10:50.585Z,4.60
2022-09-09T14:13:17.082Z,9.93
2022-09-09T14:15:43.655Z,2.38
2022-09-09T14:18:13.139Z,3.95
2022-09-09T14:20:39.681Z,2.67
2022-09-09T14:23:06.358Z,4.35
2022-09-09T14:25:32.878Z,0.98
2022-09-09T14:27:59.346Z,3.63
2022-09-09T14:30:25.967Z,3.92
2022-09-09T14:32:52.488Z,2.92
2022-09-09T14:35:19.320Z,1.67
2022-09-09T14:37:46.204Z,5.13
2022-09-09T14:40:12.903Z,1.98
2022-09-09T14:42:39.411Z,5.15
2022-09-09T14:45:06.660Z,5.75
2022-09-09T14:47:33.242Z,4.50
2022-09-09T14:50:01.906Z,5.75
2022-09-09T14:52:30.324Z,1.90
2022-09-09T14:54:56.967Z,2.20
2022-09-09T14:57:23.713Z,4.38
2022-09-09T14:59:51.265Z,3.60
2022-09-09T15:02:18.033Z,5.18
2022-09-09T15:04:45.159Z,4.65
2022-09-09T15:07:11.834Z,6.47
2022-09-09T15:09:38.440Z,4.35
2022-09-09T15:12:05.665Z,5.00
2022-09-09T15:14:32.459Z,6.43
2022-09-09T15:16:58.966Z,2.80
2022-09-09T15:19:25.474Z,7.68
2022-09-09T15:21:52.425Z,4.38
2022-09-09T15:24:19.181Z,6.53
2022-09-09T15:26:45.696Z,4.70
2022-09-09T15:29:12.309Z,4.82
2022-09-09T15:31:38.836Z,9.15
2022-09-09T15:34:07.128Z,5.43
2022-09-09T15:36:41.748Z,4.82
2022-09-09T15:39:13.838Z,1.48
2022-09-09T15:41:40.676Z,8.82
2022-09-09T15:44:07.232Z,4.22
2022-09-09T15:46:38.733Z,3.13
2022-09-09T15:49:13.898Z,3.83
2022-09-09T15:51:44.433Z,3.63
2022-09-09T15:54:13.494Z,2.85
2022-09-09T15:56:40.409Z,1.25
2022-09-09T15:59:06.984Z,3.20
2022-09-09T16:01:34.356Z,2.30
2022-09-09T16:04:01.046Z,3.72
2022-09-09T16:06:29.348Z,4.05
2022-09-09T16:08:58.486Z,4.72
2022-09-09T16:11:27.543Z,5.22
2022-09-09T16:13:55.687Z,5.40
2022-09-09T16:16:25.089Z,9.10
2022-09-09T16:18:54.161Z,3.30
2022-09-09T16:21:26.099Z,5.07
2022-09-09T16:23:54.379Z,6.05
2022-09-09T16:26:21.013Z,5.95
2022-09-09T16:28:48.325Z,6.65
2022-09-09T16:31:22.981Z,9.95
2022-09-09T16:33:51.325Z,8.80
2022-09-09T16:36:23.809Z,10.75
2022-09-09T16:38:58.302Z,8.60
2022-09-09T16:41:26.527Z,9.98
2022-09-09T16:43:57.956Z,8.43
2022-09-09T16:48:52.880Z,9.60
2022-09-09T16:51:24.891Z,7.70
2022-09-09T16:53:52.127Z,10.38
2022-09-09T16:56:21.674Z,9.52
2022-09-09T16:58:58.433Z,8.48
2022-09-09T17:01:27.166Z,12.50
2022-09-09T17:04:01.059Z,11.07
2022-09-09T17:06:29.725Z,9.93
2022-09-09T17:09:01.019Z,7.25
2022-09-09T17:11:28.520Z,11.75
2022-09-09T17:13:56.084Z,18.70
2022-09-09T17:16:24.385Z,19.60
2022-09-09T17:18:51.848Z,13.45
2022-09-09T17:21:20.469Z,20.00
2022-09-09T17:23:47.355Z,9.68
2022-09-09T17:26:15.900Z,8.63
2022-09-09T17:28:43.483Z,9.32
2022-09-09T17:31:12.477Z,12.50
2022-09-09T17:33:40.531Z,9.48
2022-09-09T17:36:16.720Z,13.23
2022-09-09T17:38:43.516Z,10.75
2022-09-09T17:41:13.148Z,9.48
2022-09-09T17:43:40.128Z,11.35
2022-09-09T17:46:35.774Z,13.13
2022-09-09T17:49:05.449Z,15.35
2022-09-09T17:51:33.137Z,11.05
2022-09-09T17:54:08.794Z,9.27
2022-09-09T17:56:36.373Z,10.63
2022-09-09T17:59:04.298Z,7.07
2022-09-09T18:01:33.702Z,14.57
2022-09-09T18:04:03.209Z,7.78
2022-09-09T18:06:34.286Z,10.43
2022-09-09T18:09:04.371Z,16.70
2022-09-09T18:11:33.728Z,13.52
2022-09-09T18:14:03.157Z,13.88
2022-09-09T18:16:34.650Z,11.95
2022-09-09T18:19:03.855Z,13.00
2022-09-09T18:21:33.115Z,11.63
2022-09-09T18:24:01.679Z,8.48
2022-09-09T18:26:28.459Z,12.00
2022-09-09T18:28:57.598Z,9.52
2022-09-09T18:31:27.191Z,13.90
2022-09-09T18:33:54.862Z,9.45
2022-09-09T18:36:24.597Z,10.68
2022-09-09T18:38:52.321Z,14.43
2022-09-09T18:41:24.726Z,12.15
2022-09-09T18:43:53.211Z,7.18
2022-09-09T18:46:20.506Z,12.38
2022-09-09T18:48:48.191Z,10.40
2022-09-09T18:51:17.050Z,10.98
2022-09-09T18:53:43.849Z,8.15
2022-09-09T18:56:12.899Z,6.88
2022-09-09T18:58:40.395Z,6.88
2022-09-09T19:01:16.116Z,9.95
2022-09-09T19:03:43.262Z,9.70
2022-09-09T19:06:13.755Z,7.63
2022-09-09T19:08:42.192Z,12.43
2022-09-09T19:11:11.982Z,9.32
2022-09-09T19:13:39.325Z,12.23
2022-09-09T19:16:14.156Z,17.10
2022-09-09T19:18:44.485Z,11.63
2022-09-09T19:21:20.056Z,9.70
2022-09-09T19:23:47.247Z,15.32
2022-09-09T19:26:20.778Z,9.88
2022-09-09T19:28:50.044Z,7.18
2022-09-09T19:31:18.842Z,9.68
2022-09-09T19:33:47.208Z,11.98
2022-09-09T19:36:17.110Z,10.07
2022-09-09T19:38:44.727Z,13.20
2022-09-09T19:41:13.785Z,8.07
2022-09-09T19:43:40.779Z,8.05
2022-09-09T19:46:09.407Z,18.58
2022-09-09T19:48:38.900Z,23.73
2022-09-09T19:51:09.339Z,17.88
2022-09-09T19:53:38.136Z,18.48
2022-09-09T19:56:05.223Z,12.38
2022-09-09T19:58:34.412Z,8.20
2022-09-09T20:01:10.595Z,14.88
2022-09-09T20:03:39.095Z,9.13
2022-09-09T20:06:07.165Z,6.47
2022-09-09T20:08:34.446Z,7.40
2022-09-09T20:11:02.283Z,9.88
2022-09-09T20:13:30.360Z,6.95
2022-09-09T20:16:02.819Z,5.47
2022-09-09T20:18:32.763Z,5.10
2022-09-09T20:21:00.665Z,5.40
2022-09-09T20:23:30.601Z,6.93
2022-09-09T20:26:02.945Z,8.40
2022-09-09T20:28:29.863Z,4.70
2022-09-09T20:30:56.861Z,6.32
2022-09-09T20:33:23.589Z,9.73
2022-09-09T20:35:50.455Z,7.55
2022-09-09T20:38:17.343Z,8.23
2022-09-09T20:40:43.997Z,7.18
2022-09-09T20:43:12.725Z,10.95
2022-09-09T20:45:39.580Z,11.50
2022-09-09T20:48:07.322Z,9.48
2022-09-09T20:50:36.990Z,9.90
2022-09-09T20:53:04.379Z,14.80
2022-09-09T20:55:31.779Z,13.30
2022-09-09T20:57:58.749Z,15.52
2022-09-09T21:00:25.447Z,10.52
2022-09-09T21:02:52.313Z,13.43
2022-09-09T21:05:23.922Z,12.45
2022-09-09T21:07:50.796Z,18.30
2022-09-09T21:10:18.169Z,15.43
2022-09-09T21:12:45.090Z,11.38
2022-09-09T21:15:11.977Z,11.68
2022-09-09T21:17:40.277Z,10.77
2022-09-09T21:20:07.619Z,13.43
2022-09-09T21:22:34.439Z,15.50
2022-09-09T21:25:01.137Z,23.25
2022-09-09T21:27:30.034Z,14.07
2022-09-09T21:29:56.758Z,16.63
2022-09-09T21:32:23.440Z,13.18
2022-09-09T21:34:50.123Z,14.23
2022-09-09T21:37:16.821Z,15.25
2022-09-09T21:39:43.564Z,12.95
2022-09-09T21:42:10.333Z,19.70
2022-09-09T21:44:37.035Z,15.27
2022-09-09T21:47:04.299Z,20.60
2022-09-09T21:49:30.904Z,14.02
2022-09-09T21:51:58.292Z,13.48
2022-09-09T21:54:25.548Z,17.77
2022-09-09T21:56:52.381Z,20.05
2022-09-09T21:59:19.085Z,17.63
2022-09-09T22:01:47.318Z,18.30
2022-09-09T22:04:14.940Z,19.52
2022-09-09T22:06:41.843Z,21.33
2022-09-09T22:09:08.573Z,18.73
2022-09-09T22:11:35.933Z,18.20
2022-09-09T22:14:02.551Z,18.70
2022-09-09T22:16:29.156Z,16.90
2022-09-09T22:18:58.097Z,20.65
2022-09-09T22:21:27.082Z,15.23
2022-09-09T22:23:55.794Z,28.60
2022-09-09T22:26:24.139Z,16.95
2022-09-09T22:28:53.619Z,20.40
2022-09-09T22:31:22.489Z,21.90
2022-09-09T22:33:49.483Z,24.10
2022-09-09T22:36:16.051Z,16.85
2022-09-09T22:38:42.782Z,19.08
2022-09-09T22:41:10.332Z,21.27
2022-09-09T22:43:36.854Z,20.23
2022-09-09T22:46:04.102Z,24.40
2022-09-09T22:48:34.488Z,17.20
2022-09-09T22:51:05.574Z,17.48
2022-09-09T22:53:32.723Z,18.92
2022-09-09T22:56:01.378Z,24.20
2022-09-09T22:58:29.887Z,21.60
2022-09-09T23:00:59.599Z,17.65
2022-09-09T23:03:28.030Z,21.17
2022-09-09T23:05:57.359Z,16.33
2022-09-09T23:08:25.632Z,15.23
2022-09-09T23:10:55.442Z,14.73
2022-09-09T23:13:23.088Z,16.17
2022-09-09T23:15:50.019Z,9.57
2022-09-09T23:18:16.563Z,13.48
2022-09-09T23:20:43.137Z,15.45
2022-09-09T23:23:11.486Z,16.17
2022-09-09T23:25:38.124Z,14.13
2022-09-09T23:28:04.880Z,11.40
2022-09-09T23:30:31.372Z,9.43
2022-09-09T23:32:57.898Z,13.13
2022-09-09T23:35:24.549Z,20.30
2022-09-09T23:37:51.014Z,10.65
2022-09-09T23:40:17.579Z,14.27
2022-09-09T23:42:47.493Z,13.13
2022-09-09T23:45:14.960Z,9.48
2022-09-09T23:47:41.679Z,15.82
2022-09-09T23:50:08.837Z,14.38
2022-09-09T23:52:36.936Z,9.27
2022-09-09T23:55:04.221Z,6.00
2022-09-09T23:57:30.708Z,7.95
2022-09-09T23:59:57.208Z,7.45
